createdAt,value
2018-02-04T00:01:42.323Z,6.32
2018-02-04T00:04:09.738Z,7.50
2018-02-04T00:06:37.222Z,7.30
2018-02-04T00:09:04.630Z,6.90
2018-02-04T00:11:32.050Z,7.43
2018-02-04T00:13:59.484Z,6.68
2018-02-04T00:16:26.901Z,6.35
2018-02-04T00:18:54.316Z,5.30
2018-02-04T00:21:21.742Z,7.00
2018-02-04T00:23:49.158Z,7.05
2018-02-04T00:26:17.358Z,6.40
2018-02-04T00:28:45.579Z,8.35
2018-02-04T00:31:13.765Z,7.22
2018-02-04T00:33:41.225Z,7.20
2018-02-04T00:36:08.633Z,7.47
2018-02-04T00:38:37.551Z,7.97
2018-02-04T00:41:04.972Z,7.40
2018-02-04T00:43:32.375Z,7.40
2018-02-04T00:46:00.558Z,7.30
2018-02-04T00:48:28.077Z,8.32
2018-02-04T00:50:55.562Z,7.65
2018-02-04T00:53:22.975Z,8.10
2018-02-04T00:55:50.396Z,7.85
2018-02-04T00:58:17.804Z,7.82
2018-02-04T01:00:45.241Z,8.98
2018-02-04T01:03:12.666Z,9.00
2018-02-04T01:05:40.058Z,8.65
2018-02-04T01:08:07.469Z,8.90
2018-02-04T01:10:34.915Z,8.10
2018-02-04T01:13:02.324Z,8.20
2018-02-04T01:15:29.738Z,8.82
2018-02-04T01:17:57.161Z,8.32
2018-02-04T01:20:24.577Z,9.98
2018-02-04T01:22:52.012Z,10.50
2018-02-04T01:25:20.189Z,10.23
2018-02-04T01:27:48.386Z,11.10
2018-02-04T01:30:16.581Z,9.75
2018-02-04T01:32:44.782Z,11.07
2018-02-04T01:35:12.255Z,11.57
2018-02-04T01:37:39.673Z,12.27
2018-02-04T01:40:07.189Z,12.65
2018-02-04T01:42:34.606Z,12.23
2018-02-04T01:45:02.090Z,12.20
2018-02-04T01:47:29.612Z,12.07
2018-02-04T01:49:57.068Z,12.15
2018-02-04T01:52:24.486Z,11.98
2018-02-04T01:54:52.002Z,11.63
2018-02-04T01:57:19.424Z,12.98
2018-02-04T01:59:46.836Z,11.52
2018-02-04T02:02:14.262Z,12.95
2018-02-04T02:04:41.670Z,13.38
2018-02-04T02:07:09.085Z,14.15
2018-02-04T02:09:36.512Z,12.85
2018-02-04T02:12:03.938Z,13.62
2018-02-04T02:14:31.343Z,13.77
2018-02-04T02:16:58.772Z,13.80
2018-02-04T02:19:26.178Z,13.85
2018-02-04T02:21:53.594Z,13.75
2018-02-04T02:24:21.014Z,13.05
2018-02-04T02:26:48.488Z,13.25
2018-02-04T02:29:16.677Z,12.80
2018-02-04T02:31:44.093Z,12.68
2018-02-04T02:34:11.610Z,13.57
2018-02-04T02:36:39.026Z,13.27
2018-02-04T02:39:06.461Z,14.50
2018-02-04T02:41:33.923Z,14.15
2018-02-04T02:44:01.334Z,14.25
2018-02-04T02:46:28.770Z,14.27
2018-02-04T02:48:56.177Z,13.82
2018-02-04T02:51:23.691Z,14.07
2018-02-04T02:53:51.106Z,14.75
2018-02-04T02:56:18.524Z,14.77
2018-02-04T02:58:45.957Z,16.05
2018-02-04T03:01:14.133Z,15.82
2018-02-04T03:03:41.541Z,15.18
2018-02-04T03:06:08.961Z,15.02
2018-02-04T03:08:36.500Z,16.08
2018-02-04T03:11:03.967Z,16.50
2018-02-04T03:13:31.377Z,15.77
2018-02-04T03:15:58.802Z,15.73
2018-02-04T03:18:26.220Z,16.15
2018-02-04T03:20:53.624Z,16.25
2018-02-04T03:23:21.043Z,16.35
2018-02-04T03:25:48.453Z,16.60
2018-02-04T03:28:15.873Z,16.30
2018-02-04T03:30:43.395Z,8.77
2018-02-04T03:33:10.807Z,16.87
2018-02-04T03:35:38.229Z,15.93
2018-02-04T03:38:05.635Z,16.37
2018-02-04T03:40:33.049Z,17.02
2018-02-04T03:43:01.236Z,16.62
2018-02-04T03:45:29.417Z,16.37
2018-02-04T03:47:57.609Z,16.42
2018-02-04T03:50:25.782Z,16.58
2018-02-04T03:52:53.971Z,16.05
2018-02-04T03:55:22.146Z,13.05
2018-02-04T03:57:49.662Z,15.57
2018-02-04T04:00:17.074Z,15.50
2018-02-04T04:02:44.490Z,15.50
2018-02-04T04:05:11.913Z,16.00
2018-02-04T04:07:39.352Z,15.05
2018-02-04T04:10:06.769Z,15.18
2018-02-04T04:12:34.956Z,14.52
2018-02-04T04:15:03.179Z,14.73
2018-02-04T04:17:30.606Z,16.05
2018-02-04T04:19:58.820Z,13.50
2018-02-04T04:22:26.290Z,14.32
2018-02-04T04:24:53.759Z,17.35
2018-02-04T04:27:21.181Z,15.57
2018-02-04T04:29:48.602Z,14.50
2018-02-04T04:32:16.015Z,15.63
2018-02-04T04:34:43.434Z,15.63
2018-02-04T04:37:10.845Z,15.15
2018-02-04T04:39:38.363Z,16.40
2018-02-04T04:42:05.837Z,15.07
2018-02-04T04:44:33.255Z,16.23
2018-02-04T04:47:00.666Z,14.25
2018-02-04T04:49:28.089Z,15.50
2018-02-04T04:51:55.502Z,15.18
2018-02-04T04:54:22.925Z,15.70
2018-02-04T04:56:50.342Z,17.08
2018-02-04T04:59:17.759Z,14.98
2018-02-04T05:01:45.281Z,15.25
2018-02-04T05:04:13.447Z,14.32
2018-02-04T05:06:41.622Z,15.70
2018-02-04T05:09:09.797Z,16.27
2018-02-04T05:11:37.213Z,14.87
2018-02-04T05:14:04.630Z,10.80
2018-02-04T05:16:32.141Z,13.30
2018-02-04T05:18:59.549Z,12.93
2018-02-04T05:21:26.979Z,12.15
2018-02-04T05:23:54.385Z,12.40
2018-02-04T05:26:21.817Z,12.70
2018-02-04T05:28:49.247Z,13.60
2018-02-04T05:31:16.650Z,13.05
2018-02-04T05:33:44.066Z,12.75
2018-02-04T05:36:11.475Z,13.27
2018-02-04T05:38:38.890Z,14.20
2018-02-04T05:41:06.333Z,14.90
2018-02-04T05:43:33.785Z,14.75
2018-02-04T05:46:01.204Z,13.25
2018-02-04T05:48:28.630Z,15.18
2018-02-04T05:50:56.037Z,15.65
2018-02-04T05:53:23.558Z,15.52
2018-02-04T05:55:50.978Z,14.45
2018-02-04T05:58:18.401Z,14.75
2018-02-04T06:00:45.813Z,15.38
2018-02-04T06:03:13.236Z,14.87
2018-02-04T06:05:40.641Z,15.20
2018-02-04T06:08:08.053Z,15.85
2018-02-04T06:10:35.457Z,14.45
2018-02-04T06:13:02.910Z,16.10
2018-02-04T06:15:30.341Z,14.55
2018-02-04T06:17:58.520Z,14.20
2018-02-04T06:20:25.958Z,14.80
2018-02-04T06:22:53.381Z,13.77
2018-02-04T06:25:21.585Z,15.60
2018-02-04T06:27:49.068Z,15.50
2018-02-04T06:30:16.483Z,15.40
2018-02-04T06:32:43.890Z,15.32
2018-02-04T06:35:11.311Z,17.00
2018-02-04T06:37:38.832Z,14.65
2018-02-04T06:40:07.012Z,15.48
2018-02-04T06:42:34.482Z,16.67
2018-02-04T06:45:01.909Z,14.40
2018-02-04T06:47:29.319Z,15.15
2018-02-04T06:49:57.507Z,16.10
2018-02-04T06:52:25.698Z,15.18
2018-02-04T06:54:53.123Z,15.32
2018-02-04T06:57:20.529Z,16.70
2018-02-04T06:59:47.951Z,17.45
2018-02-04T07:02:15.413Z,15.20
2018-02-04T07:04:42.817Z,15.98
2018-02-04T07:07:11.044Z,16.17
2018-02-04T07:09:38.460Z,16.40
2018-02-04T07:12:05.981Z,15.48
2018-02-04T07:14:33.397Z,15.57
2018-02-04T07:17:00.925Z,16.90
2018-02-04T07:19:28.353Z,15.98
2018-02-04T07:21:56.532Z,15.40
2018-02-04T07:24:24.714Z,16.48
2018-02-04T07:26:52.948Z,17.00
2018-02-04T07:29:20.415Z,15.50
2018-02-04T07:31:47.831Z,15.43
2018-02-04T07:34:15.252Z,15.77
2018-02-04T07:36:42.847Z,15.90
2018-02-04T07:39:10.246Z,15.55
2018-02-04T07:41:37.676Z,15.68
2018-02-04T07:44:05.080Z,16.75
2018-02-04T07:46:32.490Z,15.65
2018-02-04T07:48:59.905Z,16.30
2018-02-04T07:51:27.426Z,15.52
2018-02-04T07:53:54.863Z,16.17
2018-02-04T07:56:22.385Z,16.35
2018-02-04T07:58:49.868Z,16.27
2018-02-04T08:01:17.280Z,16.37
2018-02-04T08:03:44.761Z,15.60
2018-02-04T08:06:12.178Z,16.70
2018-02-04T08:08:39.585Z,17.05
2018-02-04T08:11:07.010Z,16.17
2018-02-04T08:13:34.422Z,16.98
2018-02-04T08:16:01.951Z,16.87
2018-02-04T08:18:29.369Z,16.37
2018-02-04T08:20:56.798Z,17.37
2018-02-04T08:23:24.221Z,15.73
2018-02-04T08:25:52.420Z,14.38
2018-02-04T08:28:20.598Z,13.68
2018-02-04T08:30:48.039Z,14.27
2018-02-04T08:33:15.445Z,13.82
2018-02-04T08:35:43.665Z,12.00
2018-02-04T08:38:11.138Z,13.82
2018-02-04T08:40:38.545Z,12.15
2018-02-04T08:43:05.962Z,11.75
2018-02-04T08:45:33.390Z,12.25
2018-02-04T08:48:00.805Z,10.38
2018-02-04T08:50:28.226Z,12.15
2018-02-04T08:52:55.646Z,13.13
2018-02-04T08:55:23.113Z,11.85
2018-02-04T08:57:50.573Z,12.60
2018-02-04T09:00:18.001Z,13.18
2018-02-04T09:02:45.665Z,13.65
2018-02-04T09:05:13.062Z,11.98
2018-02-04T09:07:41.247Z,12.85
2018-02-04T09:10:09.413Z,13.55
2018-02-04T09:12:36.829Z,13.13
2018-02-04T09:15:04.295Z,6.72
2018-02-04T09:17:31.694Z,13.52
2018-02-04T09:19:59.157Z,12.98
2018-02-04T09:22:26.564Z,12.98
2018-02-04T09:24:54.745Z,13.45
2018-02-04T09:27:22.249Z,14.73
2018-02-04T09:29:49.674Z,14.45
2018-02-04T09:32:18.589Z,13.80
2018-02-04T09:34:46.779Z,13.88
2018-02-04T09:37:14.958Z,14.30
2018-02-04T09:39:43.173Z,14.48
2018-02-04T09:42:10.652Z,15.48
2018-02-04T09:44:38.065Z,15.10
2018-02-04T09:47:05.487Z,16.33
2018-02-04T09:49:32.902Z,14.82
2018-02-04T09:52:00.337Z,15.45
2018-02-04T09:54:27.771Z,14.95
2018-02-04T09:56:55.941Z,15.30
2018-02-04T09:59:24.175Z,14.90
2018-02-04T10:01:51.589Z,15.18
2018-02-04T10:04:19.019Z,16.73
2018-02-04T10:06:46.469Z,18.15
2018-02-04T10:09:14.044Z,15.57
2018-02-04T10:11:42.286Z,16.98
2018-02-04T10:14:09.662Z,16.77
2018-02-04T10:16:37.852Z,16.60
2018-02-04T10:19:06.025Z,17.45
2018-02-04T10:21:33.463Z,18.60
2018-02-04T10:24:00.940Z,17.35
2018-02-04T10:26:28.349Z,17.08
2018-02-04T10:28:56.566Z,16.80
2018-02-04T10:31:24.004Z,16.25
2018-02-04T10:33:52.225Z,16.10
2018-02-04T10:36:19.656Z,17.33
2018-02-04T10:38:47.878Z,17.87
2018-02-04T10:41:15.293Z,16.87
2018-02-04T10:43:42.724Z,16.92
2018-02-04T10:46:10.125Z,17.17
2018-02-04T10:48:38.305Z,19.23
2018-02-04T10:51:11.554Z,16.58
2018-02-04T10:53:38.974Z,16.15
2018-02-04T10:56:06.475Z,16.55
2018-02-04T10:58:34.655Z,15.68
2018-02-04T11:01:02.841Z,16.20
2018-02-04T11:03:31.049Z,16.00
2018-02-04T11:05:58.461Z,9.15
2018-02-04T11:08:25.925Z,14.05
2018-02-04T11:10:53.356Z,16.05
2018-02-04T11:13:20.769Z,16.40
2018-02-04T11:15:48.273Z,16.65
2018-02-04T11:18:16.456Z,16.15
2018-02-04T11:20:44.648Z,16.00
2018-02-04T11:23:12.853Z,14.80
2018-02-04T11:25:40.267Z,14.38
2018-02-04T11:28:07.706Z,14.20
2018-02-04T11:30:35.164Z,13.77
2018-02-04T11:33:02.586Z,12.90
2018-02-04T11:35:30.109Z,12.73
2018-02-04T11:37:57.533Z,11.95
2018-02-04T11:40:25.031Z,10.38
2018-02-04T11:42:52.463Z,11.55
2018-02-04T11:45:19.886Z,11.70
2018-02-04T11:47:47.306Z,10.88
2018-02-04T11:50:15.517Z,11.98
2018-02-04T11:52:42.938Z,12.75
2018-02-04T11:55:10.362Z,12.40
2018-02-04T11:57:37.804Z,11.47
2018-02-04T12:00:06.006Z,11.67
2018-02-04T12:02:33.425Z,11.20
2018-02-04T12:05:00.854Z,11.70
2018-02-04T12:07:28.268Z,11.53
2018-02-04T12:09:55.716Z,11.67
2018-02-04T12:12:23.167Z,12.27
2018-02-04T12:14:50.577Z,11.87
2018-02-04T12:17:18.011Z,11.00
2018-02-04T12:19:45.437Z,12.00
2018-02-04T12:22:13.643Z,10.60
2018-02-04T12:24:41.061Z,11.00
2018-02-04T12:27:08.473Z,11.00
2018-02-04T12:29:35.898Z,11.10
2018-02-04T12:32:03.314Z,10.93
2018-02-04T12:34:30.751Z,10.50
2018-02-04T12:36:58.997Z,10.80
2018-02-04T12:39:26.405Z,10.48
2018-02-04T12:41:54.612Z,10.73
2018-02-04T12:44:22.071Z,10.27
2018-02-04T12:46:49.494Z,10.35
2018-02-04T12:49:16.914Z,11.20
2018-02-04T12:51:45.097Z,11.38
2018-02-04T12:54:13.289Z,12.60
2018-02-04T12:56:41.506Z,12.02
2018-02-04T12:59:08.913Z,11.60
2018-02-04T13:01:36.343Z,12.18
2018-02-04T13:04:03.761Z,11.50
2018-02-04T13:06:31.189Z,11.00
2018-02-04T13:08:58.677Z,11.27
2018-02-04T13:11:26.093Z,11.50
2018-02-04T13:13:53.512Z,10.37
2018-02-04T13:16:20.928Z,10.60
2018-02-04T13:18:48.393Z,10.70
2018-02-04T13:21:15.943Z,10.43
2018-02-04T13:23:43.336Z,11.47
2018-02-04T13:26:10.786Z,11.53
2018-02-04T13:28:38.215Z,11.00
2018-02-04T13:31:05.690Z,11.35
2018-02-04T13:33:33.114Z,10.65
2018-02-04T13:36:00.533Z,12.45
2018-02-04T13:38:28.006Z,11.20
2018-02-04T13:40:55.463Z,11.57
2018-02-04T13:43:23.640Z,10.93
2018-02-04T13:45:51.862Z,11.05
2018-02-04T13:48:19.308Z,11.12
2018-02-04T13:50:46.712Z,11.73
2018-02-04T13:53:14.145Z,11.88
2018-02-04T13:55:41.602Z,12.40
2018-02-04T13:58:09.030Z,11.57
2018-02-04T14:00:36.437Z,10.45
2018-02-04T14:03:03.858Z,9.20
2018-02-04T14:05:31.382Z,9.40
2018-02-04T14:07:58.851Z,8.60
2018-02-04T14:10:26.337Z,7.90
2018-02-04T14:12:53.811Z,8.70
2018-02-04T14:15:21.211Z,8.07
2018-02-04T14:17:48.662Z,8.50
2018-02-04T14:20:16.074Z,9.27
2018-02-04T14:22:44.313Z,7.90
2018-02-04T14:25:11.717Z,9.15
2018-02-04T14:27:39.148Z,9.23
2018-02-04T14:30:06.593Z,8.77
2018-02-04T14:32:34.010Z,9.77
2018-02-04T14:35:02.926Z,9.25
2018-02-04T14:37:30.339Z,9.75
2018-02-04T14:39:58.517Z,10.50
2018-02-04T14:42:25.950Z,10.00
2018-02-04T14:44:54.146Z,10.43
2018-02-04T14:47:22.373Z,10.23
2018-02-04T14:49:49.818Z,9.50
2018-02-04T14:52:17.232Z,10.00
2018-02-04T14:54:44.638Z,7.75
2018-02-04T14:57:12.115Z,9.98
2018-02-04T14:59:39.482Z,9.73
2018-02-04T15:02:06.950Z,8.90
2018-02-04T15:04:34.384Z,7.55
2018-02-04T15:07:01.774Z,9.25
2018-02-04T15:09:29.949Z,10.10
2018-02-04T15:11:58.127Z,10.82
2018-02-04T15:14:25.558Z,10.60
2018-02-04T15:16:52.989Z,10.15
2018-02-04T15:19:20.421Z,9.93
2018-02-04T15:21:48.073Z,10.18
2018-02-04T15:24:15.485Z,9.63
2018-02-04T15:26:42.970Z,10.00
2018-02-04T15:29:10.406Z,10.07
2018-02-04T15:31:37.924Z,9.57
2018-02-04T15:34:05.330Z,9.43
2018-02-04T15:36:32.856Z,9.43
2018-02-04T15:39:00.311Z,10.82
2018-02-04T15:41:28.487Z,10.00
2018-02-04T15:43:56.721Z,10.38
2018-02-04T15:46:24.165Z,9.80
2018-02-04T15:48:52.323Z,10.18
2018-02-04T15:51:20.506Z,11.12
2018-02-04T15:53:48.699Z,10.20
2018-02-04T15:56:16.881Z,10.50
2018-02-04T15:58:45.064Z,11.10
2018-02-04T16:01:13.245Z,10.50
2018-02-04T16:03:40.648Z,9.73
2018-02-04T16:06:08.056Z,10.18
2018-02-04T16:08:35.607Z,10.95
2018-02-04T16:11:03.009Z,11.70
2018-02-04T16:13:30.537Z,13.43
2018-02-04T16:15:57.997Z,12.20
2018-02-04T16:18:25.466Z,13.15
2018-02-04T16:20:52.881Z,12.90
2018-02-04T16:23:20.401Z,12.13
2018-02-04T16:25:47.929Z,12.35
2018-02-04T16:28:15.290Z,12.73
2018-02-04T16:30:42.765Z,12.40
2018-02-04T16:33:10.178Z,13.43
2018-02-04T16:35:37.589Z,12.60
2018-02-04T16:38:05.030Z,13.00
2018-02-04T16:40:32.455Z,12.50
2018-02-04T16:42:59.854Z,12.40
2018-02-04T16:45:27.311Z,11.73
2018-02-04T16:47:54.734Z,12.20
2018-02-04T16:50:22.194Z,10.75
2018-02-04T16:52:49.642Z,11.43
2018-02-04T16:55:17.187Z,12.18
2018-02-04T16:57:45.373Z,11.15
2018-02-04T17:00:12.812Z,11.82
2018-02-04T17:02:40.991Z,10.95
2018-02-04T17:05:09.919Z,12.40
2018-02-04T17:07:38.107Z,10.40
2018-02-04T17:10:05.531Z,11.63
2018-02-04T17:12:32.953Z,11.95
2018-02-04T17:15:00.377Z,11.85
2018-02-04T17:17:27.804Z,12.90
2018-02-04T17:19:55.258Z,12.30
2018-02-04T17:22:22.724Z,13.15
2018-02-04T17:24:50.316Z,11.93
2018-02-04T17:27:17.713Z,11.48
2018-02-04T17:29:45.138Z,12.27
2018-02-04T17:32:12.565Z,10.75
2018-02-04T17:34:39.972Z,9.13
2018-02-04T17:37:07.389Z,11.00
2018-02-04T17:39:34.816Z,11.68
2018-02-04T17:42:02.254Z,10.85
2018-02-04T17:44:30.449Z,12.68
2018-02-04T17:46:57.862Z,12.57
2018-02-04T17:49:26.042Z,11.93
2018-02-04T17:51:53.467Z,12.13
2018-02-04T17:54:20.922Z,11.48
2018-02-04T17:56:49.103Z,11.75
2018-02-04T17:59:17.292Z,11.35
2018-02-04T18:01:45.514Z,13.77
2018-02-04T18:04:12.961Z,12.40
2018-02-04T18:06:41.551Z,12.00
2018-02-04T18:09:09.721Z,12.43
2018-02-04T18:11:37.909Z,14.00
2018-02-04T18:14:06.094Z,12.45
2018-02-04T18:16:33.605Z,11.65
2018-02-04T18:19:01.032Z,11.73
2018-02-04T18:21:28.465Z,13.23
2018-02-04T18:23:55.889Z,12.93
2018-02-04T18:26:23.341Z,12.77
2018-02-04T18:28:51.521Z,12.20
2018-02-04T18:31:19.753Z,12.30
2018-02-04T18:33:47.166Z,13.10
2018-02-04T18:36:14.577Z,13.55
2018-02-04T18:38:41.993Z,13.20
2018-02-04T18:41:09.407Z,12.80
2018-02-04T18:43:37.449Z,12.85
2018-02-04T18:46:05.648Z,13.77
2018-02-04T18:48:34.586Z,13.43
2018-02-04T18:51:02.014Z,13.35
2018-02-04T18:53:29.525Z,12.98
2018-02-04T18:55:57.002Z,12.48
2018-02-04T18:58:24.437Z,13.62
2018-02-04T19:00:52.648Z,11.70
2018-02-04T19:03:20.062Z,12.15
2018-02-04T19:05:47.590Z,12.20
2018-02-04T19:08:15.052Z,12.18
2018-02-04T19:10:42.469Z,13.02
2018-02-04T19:13:10.644Z,12.07
2018-02-04T19:15:38.065Z,11.95
2018-02-04T19:18:06.242Z,12.45
2018-02-04T19:20:34.442Z,12.80
2018-02-04T19:23:01.878Z,12.25
2018-02-04T19:25:29.303Z,12.68
2018-02-04T19:27:56.714Z,14.00
2018-02-04T19:30:24.209Z,14.30
2018-02-04T19:32:52.391Z,13.95
2018-02-04T19:35:20.581Z,13.60
2018-02-04T19:37:48.003Z,13.27
2018-02-04T19:40:15.412Z,14.50
2018-02-04T19:42:42.898Z,14.45
2018-02-04T19:45:11.054Z,13.85
2018-02-04T19:47:39.373Z,15.82
2018-02-04T19:50:07.536Z,14.23
2018-02-04T19:52:36.916Z,14.85
2018-02-04T19:55:04.342Z,14.05
2018-02-04T19:57:32.661Z,14.50
2018-02-04T20:00:00.071Z,14.20
2018-02-04T20:02:27.472Z,14.20
2018-02-04T20:04:54.946Z,15.05
2018-02-04T20:07:22.379Z,14.68
2018-02-04T20:09:49.828Z,13.20
2018-02-04T20:12:17.238Z,14.77
2018-02-04T20:14:44.658Z,14.10
2018-02-04T20:17:12.928Z,15.23
2018-02-04T20:19:40.376Z,15.27
2018-02-04T20:22:07.777Z,13.95
2018-02-04T20:24:35.300Z,14.43
2018-02-04T20:27:02.734Z,13.30
2018-02-04T20:29:30.161Z,16.60
2018-02-04T20:31:57.592Z,14.75
2018-02-04T20:34:36.950Z,14.57
2018-02-04T20:37:05.281Z,13.93
2018-02-04T20:39:32.698Z,13.85
2018-02-04T20:42:00.143Z,15.38
2018-02-04T20:44:27.654Z,16.67
2018-02-04T20:46:55.083Z,15.48
2018-02-04T20:49:23.261Z,14.93
2018-02-04T20:51:50.718Z,15.70
2018-02-04T20:54:18.131Z,15.73
2018-02-04T20:56:45.546Z,14.95
2018-02-04T20:59:12.990Z,15.85
2018-02-04T21:01:40.408Z,15.50
2018-02-04T21:04:07.960Z,15.73
2018-02-04T21:06:35.345Z,15.75
2018-02-04T21:09:02.771Z,15.68
2018-02-04T21:11:30.192Z,15.00
2018-02-04T21:13:58.444Z,14.95
2018-02-04T21:16:25.838Z,16.08
2018-02-04T21:18:53.262Z,14.82
2018-02-04T21:21:20.721Z,14.57
2018-02-04T21:23:48.154Z,13.57
2018-02-04T21:26:16.358Z,15.30
2018-02-04T21:28:43.809Z,15.10
2018-02-04T21:31:11.983Z,15.00
2018-02-04T21:33:40.203Z,16.42
2018-02-04T21:36:07.624Z,17.12
2018-02-04T21:38:35.873Z,16.33
2018-02-04T21:41:03.281Z,15.95
2018-02-04T21:43:30.710Z,17.52
2018-02-04T21:45:58.133Z,16.02
2018-02-04T21:48:26.350Z,16.80
2018-02-04T21:50:53.765Z,15.88
2018-02-04T21:53:21.188Z,16.37
2018-02-04T21:55:48.617Z,14.98
2018-02-04T21:58:16.114Z,16.77
2018-02-04T22:00:43.530Z,16.80
2018-02-04T22:03:10.953Z,16.35
2018-02-04T22:05:38.377Z,15.90
2018-02-04T22:08:07.355Z,16.85
2018-02-04T22:10:34.783Z,16.30
2018-02-04T22:13:02.182Z,17.17
2018-02-04T22:15:29.603Z,17.10
2018-02-04T22:17:57.005Z,20.35
2018-02-04T22:20:24.417Z,17.20
2018-02-04T22:22:51.887Z,20.10
2018-02-04T22:25:20.872Z,19.85
2018-02-04T22:27:48.289Z,19.08
2018-02-04T22:30:16.468Z,19.30
2018-02-04T22:32:44.682Z,18.50
2018-02-04T22:35:12.103Z,19.48
2018-02-04T22:37:39.510Z,18.75
2018-02-04T22:40:06.933Z,19.90
2018-02-04T22:42:34.453Z,20.90
2018-02-04T22:45:01.867Z,20.50
2018-02-04T22:47:29.302Z,20.17
2018-02-04T22:49:56.717Z,20.60
2018-02-04T22:52:24.126Z,19.60
2018-02-04T22:54:51.592Z,19.80
2018-02-04T22:57:19.755Z,19.95
2018-02-04T22:59:47.949Z,20.05
2018-02-04T23:02:16.117Z,20.37
2018-02-04T23:04:43.580Z,20.73
2018-02-04T23:07:10.994Z,21.02
2018-02-04T23:09:38.467Z,20.77
2018-02-04T23:12:05.905Z,20.88
2018-02-04T23:14:34.101Z,21.05
2018-02-04T23:17:02.303Z,22.87
2018-02-04T23:19:29.722Z,21.08
2018-02-04T23:21:57.146Z,19.02
2018-02-04T23:24:24.573Z,21.55
2018-02-04T23:26:52.138Z,23.92
2018-02-04T23:29:19.533Z,23.17
2018-02-04T23:31:46.961Z,22.50
2018-02-04T23:34:14.374Z,22.33
2018-02-04T23:36:41.801Z,23.05
2018-02-04T23:39:09.210Z,21.20
2018-02-04T23:41:36.657Z,23.20
2018-02-04T23:44:04.067Z,23.87
2018-02-04T23:46:31.501Z,24.45
2018-02-04T23:48:59.704Z,21.45
2018-02-04T23:51:27.915Z,23.10
2018-02-04T23:53:55.338Z,22.45
2018-02-04T23:56:23.562Z,20.75
2018-02-04T23:58:50.994Z,20.73
